Terminal Aerodrome Forecast
Issued by NWS

Home | Current Version | Previous Version | Text Only | Print | Product List | Glossary On
Versions: 1 2 3 4 5 6 7 8 9 10 11 12 13
000
FTUS43 KIWX 262300 RRA
TAFSBN
TAF
KSBN 262349Z 2700/2724 21007KT P6SM BKN025
     FM270600 19009KT P6SM BKN020
     FM271000 19011KT 5SM BR OVC010
     FM271500 20012KT 5SM -RA BR OVC010=

USA.gov is the U.S. government's official web portal to all federal, state and local government web resources and services.